Orbital elements of BREEZE-M DEB
| Launched | 27 February 2006 |
| Flight ended | – |
| Launch site | Tyuratam Missile and Space Center, Kazakhstan (Also known as Baikonur Cosmodrome) |
| Owner | Commonwealth of Independent States (former USSR) |
| NORAD ID | 32025 |
| Date fetched |
Epoch osculation |
Inc. [°] |
Ecc. | RA asc node [hr] |
Arg Peri. [°] |
Mean anom [°] |
Mean motion [rev/day] |
Abs. mag |
| Date fetched |
Epoch osculation |
Inc. [°] |
Ecc. | RA asc node [hr] |
Arg Peri. [°] |
Mean anom [°] |
Mean motion [rev/day] |
Abs. mag |
| 2026 May 04 17:57 | 2026 Apr 30 09:42:22 | 51.6416 | 0.50786 | 11.8018 | 15.0499 | 355.8174 | 5.26802 | – |
| 2026 May 03 17:57 | 2026 Apr 30 09:42:22 | 51.6416 | 0.50786 | 11.8018 | 15.0499 | 355.8174 | 5.26802 | – |
| 2026 May 02 17:57 | 2026 Apr 30 09:42:22 | 51.6416 | 0.50786 | 11.8018 | 15.0499 | 355.8174 | 5.26802 | – |
| 2026 May 01 17:56 | 2026 Apr 30 09:42:22 | 51.6416 | 0.50786 | 11.8018 | 15.0499 | 355.8174 | 5.26802 | – |
| 2026 Apr 30 17:56 | 2026 Apr 30 09:42:22 | 51.6416 | 0.50786 | 11.8018 | 15.0499 | 355.8174 | 5.26802 | – |
| 2026 Apr 29 17:57 | 2026 Apr 24 07:55:55 | 51.6395 | 0.50781 | 12.0957 | 11.7622 | 355.8174 | 5.26802 | – |
| 2026 Apr 28 17:56 | 2026 Apr 24 07:55:55 | 51.6395 | 0.50781 | 12.0957 | 11.7622 | 355.8174 | 5.26802 | – |
| 2026 Apr 27 17:58 | 2026 Apr 24 07:55:55 | 51.6395 | 0.50781 | 12.0957 | 11.7622 | 355.8174 | 5.26802 | – |
| 2026 Apr 26 17:58 | 2026 Apr 24 07:55:55 | 51.6395 | 0.50781 | 12.0957 | 11.7622 | 355.8174 | 5.26802 | – |
| 2026 Apr 25 17:58 | 2026 Apr 24 07:55:55 | 51.6395 | 0.50781 | 12.0957 | 11.7622 | 355.8174 | 5.26802 | – |
| 2026 Apr 24 17:59 | 2026 Apr 24 07:55:55 | 51.6395 | 0.50781 | 12.0957 | 11.7622 | 355.8174 | 5.26802 | – |
| 2026 Apr 23 17:57 | 2026 Apr 19 04:56:06 | 51.6388 | 0.50777 | 12.3437 | 8.9882 | 355.8174 | 5.26802 | – |
| 2026 Apr 22 17:57 | 2026 Apr 19 04:56:06 | 51.6388 | 0.50777 | 12.3437 | 8.9882 | 355.8174 | 5.26802 | – |
| 2026 Apr 21 17:57 | 2026 Apr 19 04:56:06 | 51.6388 | 0.50777 | 12.3437 | 8.9882 | 355.8174 | 5.26802 | – |
| 2026 Apr 20 17:57 | 2026 Apr 19 04:56:06 | 51.6388 | 0.50777 | 12.3437 | 8.9882 | 355.8174 | 5.26802 | – |
| 2026 Apr 19 17:58 | 2026 Apr 19 04:56:06 | 51.6388 | 0.50777 | 12.3437 | 8.9882 | 355.8174 | 5.26802 | – |
| 2026 Apr 18 17:56 | 2026 Apr 11 10:09:36 | 51.6382 | 0.50771 | 12.7203 | 4.7802 | 355.8174 | 5.26802 | – |
| 2026 Apr 16 17:57 | 2026 Apr 11 10:09:36 | 51.6382 | 0.50771 | 12.7203 | 4.7802 | 355.8174 | 5.26802 | – |
| 2026 Apr 14 17:57 | 2026 Apr 11 10:09:36 | 51.6382 | 0.50771 | 12.7203 | 4.7802 | 355.8174 | 5.26802 | – |
| 2026 Apr 13 17:57 | 2026 Apr 11 10:09:36 | 51.6382 | 0.50771 | 12.7203 | 4.7802 | 355.8174 | 5.26802 | – |
| 2026 Apr 12 17:57 | 2026 Apr 06 07:09:43 | 51.6389 | 0.50768 | 12.9682 | 2.0117 | 355.8174 | 5.26802 | – |
| 2026 Apr 11 17:57 | 2026 Apr 06 07:09:43 | 51.6389 | 0.50768 | 12.9682 | 2.0117 | 355.8174 | 5.26802 | – |
| 2026 Apr 10 17:58 | 2026 Apr 06 07:09:43 | 51.6389 | 0.50768 | 12.9682 | 2.0117 | 355.8174 | 5.26802 | – |
| 2026 Apr 09 18:01 | 2026 Apr 06 07:09:43 | 51.6389 | 0.50768 | 12.9682 | 2.0117 | 355.8174 | 5.26802 | – |
| 2026 Apr 08 17:57 | 2026 Apr 06 07:09:43 | 51.6389 | 0.50768 | 12.9682 | 2.0117 | 355.8174 | 5.26802 | – |
| 2026 Apr 07 17:57 | 2026 Apr 02 07:29:45 | 51.6396 | 0.50767 | 13.1610 | 359.8596 | 355.8174 | 5.26802 | – |